Time;durP1;ratioP1;P1;durP2;ratioP2;P2;SDS_P1;SDS_P2;PMS_P1;PMS_P2;Temp;Humidity;BMP_temperature;BMP_pressure;BME280_temperature;BME280_humidity;BME280_pressure;Samples;Min_cycle;Max_cycle;Signal;HPM_P1;HPM_P2
2023/01/19 00:01:06;;;;;;;7.90;2.20;;;;;;;-128.00;-1.00;-1.00;102766;1256;1002954;-55
2023/01/19 00:03:34;;;;;;;11.10;2.30;;;;;;;-128.00;-1.00;-1.00;102760;1257;1002912;-55
2023/01/19 00:06:04;;;;;;;10.40;1.50;;;;;;;-128.00;-1.00;-1.00;102935;1256;1002622;-55
2023/01/19 00:08:31;;;;;;;9.00;1.80;;;;;;;-128.00;-1.00;-1.00;103198;1254;1012736;-52
2023/01/19 00:10:58;;;;;;;10.00;2.50;;;;;;;-128.00;-1.00;-1.00;103013;1251;1002902;-52
2023/01/19 00:13:25;;;;;;;9.40;1.90;;;;;;;-128.00;-1.00;-1.00;103048;1253;1003473;-53
2023/01/19 00:15:51;;;;;;;9.70;3.00;;;;;;;-128.00;-1.00;-1.00;103059;1251;1002339;-53
2023/01/19 00:18:19;;;;;;;6.40;2.20;;;;;;;-128.00;-1.00;-1.00;103132;1253;1002634;-54
2023/01/19 00:20:46;;;;;;;8.00;2.60;;;;;;;-128.00;-1.00;-1.00;103064;1251;1002944;-52
2023/01/19 00:23:13;;;;;;;9.20;2.40;;;;;;;-128.00;-1.00;-1.00;103108;1251;1002599;-53
2023/01/19 00:25:43;;;;;;;8.90;2.30;;;;;;;-128.00;-1.00;-1.00;103185;1251;1003301;-54
2023/01/19 00:28:10;;;;;;;7.60;2.10;;;;;;;-128.00;-1.00;-1.00;103156;1251;1014015;-55
2023/01/19 00:30:37;;;;;;;8.60;1.80;;;;;;;-128.00;-1.00;-1.00;103497;1254;1002713;-51
2023/01/19 00:34:35;;;;;;;10.90;3.30;;;;;;;-101.09;19.20;19977.39;99430;1292;1002510;-55
2023/01/19 00:37:03;;;;;;;11.80;2.40;;;;;;;-128.00;-1.00;-1.00;100891;1270;1047699;-55
2023/01/19 00:39:29;;;;;;;6.70;1.90;;;;;;;-128.00;-1.00;-1.00;100983;1265;1004623;-55
2023/01/19 00:44:42;;;;;;;9.20;2.50;;;;;;;-128.00;-1.00;-1.00;100916;1270;1054543;-54
2023/01/19 00:47:09;;;;;;;8.10;1.50;;;;;;;-128.00;-1.00;-1.00;100774;1266;1004674;-53
2023/01/19 00:49:35;;;;;;;6.60;1.40;;;;;;;-128.00;-1.00;-1.00;101019;1264;1003545;-54
2023/01/19 00:52:02;;;;;;;10.30;2.10;;;;;;;-128.00;-1.00;-1.00;101416;1258;1003772;-55
2023/01/19 00:54:29;;;;;;;5.70;2.60;;;;;;;-128.00;-1.00;-1.00;101520;1262;1004277;-55
2023/01/19 00:56:55;;;;;;;5.60;1.20;;;;;;;-128.00;-1.00;-1.00;101520;1262;1004284;-56
2023/01/19 00:59:24;;;;;;;4.10;1.20;;;;;;;-128.00;-1.00;-1.00;101358;1257;1006627;-54
2023/01/19 01:01:51;;;;;;;9.90;2.10;;;;;;;-128.00;-1.00;-1.00;101443;1262;1048574;-53
2023/01/19 01:04:18;;;;;;;9.00;1.80;;;;;;;-128.00;-1.00;-1.00;101596;1259;1004256;-55
2023/01/19 01:06:45;;;;;;;7.40;1.60;;;;;;;-128.00;-1.00;-1.00;101431;1259;1004179;-55
2023/01/19 01:09:11;;;;;;;4.20;1.20;;;;;;;-128.00;-1.00;-1.00;101501;1258;1005990;-55
2023/01/19 01:11:42;;;;;;;6.00;1.30;;;;;;;-128.00;-1.00;-1.00;101505;1262;1004890;-55
2023/01/19 01:14:10;;;;;;;30.40;17.00;;;;;;;-128.00;-1.00;-1.00;101528;1262;1047849;-55
2023/01/19 01:16:37;;;;;;;34.10;19.50;;;;;;;-128.00;-1.00;-1.00;101841;1260;1004345;-54
2023/01/19 01:19:04;;;;;;;21.80;11.00;;;;;;;-128.00;-1.00;-1.00;101458;1262;1004199;-54
2023/01/19 01:21:33;;;;;;;10.70;5.10;;;;;;;-128.00;-1.00;-1.00;101391;1262;1003689;-55
2023/01/19 01:24:00;;;;;;;16.90;8.20;;;;;;;-128.00;-1.00;-1.00;101533;1257;1061645;-53
2023/01/19 01:26:27;;;;;;;17.60;10.60;;;;;;;-128.00;-1.00;-1.00;101481;1257;1005135;-52
2023/01/19 01:28:53;;;;;;;16.70;8.80;;;;;;;-128.00;-1.00;-1.00;101623;1256;1005418;-55
2023/01/19 01:31:20;;;;;;;9.20;2.80;;;;;;;-128.00;-1.00;-1.00;101518;1262;1004729;-54
2023/01/19 01:33:47;;;;;;;32.60;12.50;;;;;;;-128.00;-1.00;-1.00;101650;1262;1004849;-53
2023/01/19 01:36:14;;;;;;;11.20;3.80;;;;;;;-128.00;-1.00;-1.00;101631;1257;1004972;-55
2023/01/19 01:38:40;;;;;;;8.20;2.40;;;;;;;-128.00;-1.00;-1.00;101427;1256;1006117;-56
2023/01/19 01:41:07;;;;;;;7.40;2.10;;;;;;;-128.00;-1.00;-1.00;101726;1256;1004239;-55
2023/01/19 01:43:53;;;;;;;7.70;2.30;;;;;;;-128.00;-1.00;-1.00;101510;1262;1004070;-54
2023/01/19 01:46:20;;;;;;;5.60;2.50;;;;;;;-128.00;-1.00;-1.00;101499;1256;1056874;-55
2023/01/19 01:48:51;;;;;;;6.80;2.10;;;;;;;-128.00;-1.00;-1.00;101559;1262;1007122;-52
2023/01/19 01:51:24;;;;;;;6.00;2.10;;;;;;;-128.00;-1.00;-1.00;101998;1258;1049243;-55
2023/01/19 01:54:13;;;;;;;9.60;1.60;;;;;;;-128.00;-1.00;-1.00;101458;1257;1046816;-55
2023/01/19 01:56:43;;;;;;;4.70;1.10;;;;;;;-128.00;-1.00;-1.00;101462;1258;1064582;-55
2023/01/19 01:59:16;;;;;;;5.00;1.30;;;;;;;-128.00;-1.00;-1.00;101850;1262;1053770;-54
2023/01/19 02:04:29;;;;;;;7.50;1.20;;;;;;;-128.00;-1.00;-1.00;101624;1262;1048435;-55
2023/01/19 02:15:17;;;;;;;5.60;1.50;;;;;;;-128.00;-1.00;-1.00;101514;1258;1059113;-54
2023/01/19 02:17:43;;;;;;;6.60;1.90;;;;;;;-128.00;-1.00;-1.00;101743;1259;1046657;-54
2023/01/19 02:20:11;;;;;;;2.80;1.40;;;;;;;-128.00;-1.00;-1.00;101522;1262;1006044;-53
2023/01/19 02:22:48;;;;;;;5.50;1.90;;;;;;;-128.00;-1.00;-1.00;102257;1262;1003630;-52
2023/01/19 02:25:15;;;;;;;8.40;2.00;;;;;;;-128.00;-1.00;-1.00;101354;1259;1053377;-54
2023/01/19 02:27:42;;;;;;;7.40;1.50;;;;;;;-128.00;-1.00;-1.00;101803;1259;1004612;-55
2023/01/19 02:30:09;;;;;;;8.80;1.90;;;;;;;-128.00;-1.00;-1.00;101405;1260;1004309;-54
2023/01/19 02:32:36;;;;;;;5.60;1.80;;;;;;;-128.00;-1.00;-1.00;101386;1263;1004349;-54
2023/01/19 02:35:03;;;;;;;11.70;3.90;;;;;;;-128.00;-1.00;-1.00;101551;1257;1005375;-54
2023/01/19 02:37:30;;;;;;;7.50;1.50;;;;;;;-128.00;-1.00;-1.00;101803;1256;1005232;-54
2023/01/19 02:39:57;;;;;;;7.40;2.30;;;;;;;-128.00;-1.00;-1.00;101371;1257;1004531;-55
2023/01/19 02:42:36;;;;;;;6.20;3.10;;;;;;;-128.00;-1.00;-1.00;101653;1257;1004291;-52
2023/01/19 02:45:08;;;;;;;7.20;2.20;;;;;;;-128.00;-1.00;-1.00;101477;1262;1046931;-54
2023/01/19 02:47:45;;;;;;;4.70;1.10;;;;;;;-128.00;-1.00;-1.00;102028;1257;1059977;-54
2023/01/19 02:50:40;;;;;;;4.00;1.20;;;;;;;-128.00;-1.00;-1.00;102390;1259;1054619;-55
2023/01/19 02:53:17;;;;;;;8.40;1.50;;;;;;;-128.00;-1.00;-1.00;102288;1262;1059031;-54
2023/01/19 02:55:47;;;;;;;5.50;1.20;;;;;;;-128.00;-1.00;-1.00;101379;1265;1049830;-49
2023/01/19 02:58:15;;;;;;;8.30;1.20;;;;;;;-128.00;-1.00;-1.00;101572;1256;1047639;-51
2023/01/19 03:01:18;;;;;;;3.50;1.50;;;;;;;-128.00;-1.00;-1.00;101029;1256;1004962;-55
2023/01/19 03:04:10;;;;;;;6.70;1.70;;;;;;;-128.00;-1.00;-1.00;101073;1256;1053530;-48
2023/01/19 03:06:47;;;;;;;6.20;1.70;;;;;;;-128.00;-1.00;-1.00;101336;1256;1059234;-51
2023/01/19 03:09:23;;;;;;;4.80;1.70;;;;;;;-128.00;-1.00;-1.00;101018;1259;1051163;-54
2023/01/19 03:11:54;;;;;;;6.10;1.10;;;;;;;-128.00;-1.00;-1.00;101274;1257;1047555;-47
2023/01/19 03:14:22;;;;;;;6.20;2.20;;;;;;;-128.00;-1.00;-1.00;101180;1258;1062513;-48
2023/01/19 03:16:57;;;;;;;5.70;1.30;;;;;;;-128.00;-1.00;-1.00;101332;1256;1003749;-52
2023/01/19 03:19:26;;;;;;;;;;;;;;;-128.00;-1.00;-1.00;101744;1258;1059413;-50
2023/01/19 03:22:14;;;;;;;3.00;1.00;;;;;;;-128.00;-1.00;-1.00;101899;1254;1049892;-52
2023/01/19 03:24:42;;;;;;;2.30;1.00;;;;;;;-128.00;-1.00;-1.00;101733;1254;1046591;-50
2023/01/19 03:27:33;;;;;;;4.70;1.00;;;;;;;-128.00;-1.00;-1.00;101265;1253;1003894;-50
2023/01/19 03:30:04;;;;;;;3.70;1.20;;;;;;;-128.00;-1.00;-1.00;101603;1253;1056025;-52
2023/01/19 03:32:34;;;;;;;4.10;1.30;;;;;;;-128.00;-1.00;-1.00;101548;1253;1061638;-49
2023/01/19 03:35:02;;;;;;;3.10;1.00;;;;;;;-128.00;-1.00;-1.00;101704;1254;1048001;-53
2023/01/19 03:37:29;;;;;;;4.80;1.60;;;;;;;-128.00;-1.00;-1.00;100831;1253;1003546;-50
2023/01/19 03:39:56;;;;;;;2.70;1.20;;;;;;;-128.00;-1.00;-1.00;101373;1261;1004087;-53
2023/01/19 03:42:22;;;;;;;9.70;3.90;;;;;;;-128.00;-1.00;-1.00;101384;1256;1004505;-49
2023/01/19 03:44:50;;;;;;;8.90;1.80;;;;;;;-128.00;-1.00;-1.00;101150;1253;1004191;-55
2023/01/19 03:47:16;;;;;;;6.50;1.80;;;;;;;-128.00;-1.00;-1.00;101292;1255;1006133;-48
2023/01/19 03:49:44;;;;;;;6.80;1.60;;;;;;;-128.00;-1.00;-1.00;101067;1254;1007284;-55
2023/01/19 03:52:11;;;;;;;5.00;2.10;;;;;;;-128.00;-1.00;-1.00;101311;1253;1004312;-50
2023/01/19 03:54:39;;;;;;;5.70;1.80;;;;;;;-128.00;-1.00;-1.00;101384;1253;1004340;-50
2023/01/19 03:57:07;;;;;;;3.30;1.10;;;;;;;-128.00;-1.00;-1.00;101464;1253;1059034;-48
2023/01/19 04:01:02;;;;;;;4.10;1.10;;;;;;;;;;101838;1292;600465;-51
2023/01/19 04:03:29;;;;;;;9.70;2.10;;;;;;;;;;104718;1270;59211;-56
2023/01/19 04:05:56;;;;;;;4.00;2.00;;;;;;;;;;104789;1269;59071;-50
2023/01/19 04:08:22;;;;;;;7.50;3.30;;;;;;;;;;104830;1264;61587;-54
2023/01/19 04:10:49;;;;;;;8.30;3.80;;;;;;;;;;104352;1264;60487;-50
2023/01/19 04:13:16;;;;;;;30.50;16.60;;;;;;;;;;104419;1267;60504;-51
2023/01/19 04:15:42;;;;;;;29.00;12.00;;;;;;;;;;104568;1267;133537;-55
2023/01/19 04:18:09;;;;;;;11.70;3.30;;;;;;;;;;104778;1261;60725;-51
2023/01/19 04:20:35;;;;;;;3.80;1.30;;;;;;;;;;104819;1263;61622;-52
2023/01/19 04:23:02;;;;;;;2.90;0.90;;;;;;;;;;104760;1263;59844;-49
2023/01/19 04:25:29;;;;;;;3.40;1.40;;;;;;;;;;104877;1264;60573;-53
2023/01/19 04:27:59;;;;;;;0.70;0.60;;;;;;;;;;104471;1262;59676;-55
2023/01/19 04:30:26;;;;;;;1.30;0.70;;;;;;;;;;104944;1263;59707;-50
2023/01/19 04:32:54;;;;;;;1.50;0.70;;;;;;;;;;106110;1259;61388;-51
2023/01/19 04:35:21;;;;;;;0.60;0.60;;;;;;;;;;105629;1265;59685;-49
2023/01/19 04:37:47;;;;;;;0.70;0.50;;;;;;;;;;105269;1263;60689;-51
2023/01/19 04:40:14;;;;;;;0.60;0.60;;;;;;;;;;105217;1263;59643;-54
2023/01/19 04:42:44;;;;;;;0.90;0.50;;;;;;;;;;105182;1266;59657;-49
2023/01/19 04:45:11;;;;;;;1.10;0.60;;;;;;;;;;105449;1264;62515;-51
2023/01/19 04:47:38;;;;;;;3.30;3.10;;;;;;;;;;105090;1266;59706;-49
2023/01/19 04:50:05;;;;;;;1.60;0.60;;;;;;;;;;105014;1266;60704;-50
2023/01/19 04:52:33;;;;;;;0.70;0.60;;;;;;;;;;105074;1269;59711;-48
2023/01/19 04:55:01;;;;;;;0.70;0.60;;;;;;;;;;105216;1264;59694;-55
2023/01/19 04:57:29;;;;;;;0.70;0.60;;;;;;;;;;105382;1263;62122;-50
2023/01/19 04:59:56;;;;;;;3.90;2.90;;;;;;;;;;105227;1266;59564;-57
2023/01/19 05:02:23;;;;;;;1.30;1.00;;;;;;;;;;105212;1264;61914;-51
2023/01/19 05:04:49;;;;;;;0.50;0.50;;;;;;;;;;105118;1263;59635;-55
2023/01/19 05:07:16;;;;;;;1.40;0.50;;;;;;;;;;106221;1264;59939;-56
2023/01/19 05:09:43;;;;;;;0.80;0.50;;;;;;;;;;105045;1267;62429;-51
2023/01/19 05:12:10;;;;;;;0.70;0.70;;;;;;;;;;105121;1261;59656;-52
2023/01/19 05:14:37;;;;;;;1.30;0.70;;;;;;;;;;104895;1263;61673;-53
2023/01/19 05:17:04;;;;;;;1.20;0.70;;;;;;;;;;104676;1264;59752;-49
2023/01/19 05:19:31;;;;;;;1.20;0.70;;;;;;;;;;104993;1265;59628;-54
2023/01/19 05:21:58;;;;;;;0.60;0.60;;;;;;;;;;105045;1267;61334;-49
2023/01/19 05:24:24;;;;;;;0.60;0.50;;;;;;;;;;104932;1267;60072;-51
2023/01/19 05:26:51;;;;;;;1.20;0.60;;;;;;;;;;104454;1267;61306;-55
2023/01/19 05:29:18;;;;;;;1.60;0.70;;;;;;;;;;104689;1260;60575;-51
2023/01/19 05:31:44;;;;;;;0.60;0.60;;;;;;;;;;104751;1260;59620;-50
2023/01/19 05:34:11;;;;;;;1.20;0.60;;;;;;;;;;104607;1258;62267;-50
2023/01/19 05:36:38;;;;;;;0.70;0.60;;;;;;;;;;104524;1266;59401;-52
2023/01/19 05:39:04;;;;;;;0.70;0.60;;;;;;;;;;104710;1258;60840;-52
2023/01/19 05:41:31;;;;;;;0.90;0.90;;;;;;;;;;104421;1265;59847;-50
2023/01/19 05:43:58;;;;;;;1.00;0.70;;;;;;;;;;104648;1261;59758;-55
2023/01/19 05:46:24;;;;;;;2.50;0.90;;;;;;;;;;105351;1258;62804;-53
2023/01/19 05:48:51;;;;;;;1.70;0.80;;;;;;;;;;105037;1254;59820;-55
2023/01/19 05:51:18;;;;;;;1.10;0.70;;;;;;;;;;105130;1254;60763;-52
2023/01/19 05:53:45;;;;;;;1.20;0.70;;;;;;;;;;105037;1258;59817;-52
2023/01/19 05:56:11;;;;;;;0.80;0.70;;;;;;;;;;104968;1261;59622;-49
2023/01/19 05:58:38;;;;;;;0.80;0.70;;;;;;;;;;104965;1254;62313;-51
2023/01/19 06:01:05;;;;;;;2.20;0.90;;;;;;;;;;105118;1259;59734;-48
2023/01/19 06:03:32;;;;;;;3.40;0.90;;;;;;;;;;104948;1258;60835;-48
2023/01/19 06:05:59;;;;;;;0.90;0.70;;;;;;;;;;104989;1254;59818;-52
2023/01/19 06:08:25;;;;;;;0.90;0.80;;;;;;;;;;105042;1256;59840;-54
2023/01/19 06:10:52;;;;;;;5.20;2.10;;;;;;;;;;105024;1257;61048;-51
2023/01/19 06:13:19;;;;;;;9.50;5.50;;;;;;;;;;104918;1259;59805;-51
2023/01/19 06:15:45;;;;;;;20.30;9.30;;;;;;;;;;105051;1259;61877;-49
2023/01/19 06:18:15;;;;;;;13.30;7.60;;;;;;;;;;105050;1260;59742;-49
2023/01/19 06:20:42;;;;;;;6.70;5.30;;;;;;;;;;105166;1255;59708;-51
2023/01/19 06:23:09;;;;;;;5.80;4.50;;;;;;;;;;105084;1260;62335;-50
2023/01/19 06:25:36;;;;;;;6.30;4.80;;;;;;;;;;105021;1260;60049;-47
2023/01/19 06:28:02;;;;;;;5.20;4.70;;;;;;;;;;105161;1254;61962;-50
2023/01/19 06:30:29;;;;;;;9.40;3.50;;;;;;;;;;108913;1253;58242;-53
2023/01/19 06:32:56;;;;;;;5.00;3.60;;;;;;;;;;105095;1260;59717;-47
2023/01/19 06:35:23;;;;;;;9.60;3.50;;;;;;;;;;105151;1255;62449;-51
2023/01/19 06:37:49;;;;;;;7.60;4.20;;;;;;;;;;105133;1254;59816;-52
2023/01/19 06:40:16;;;;;;;6.50;2.60;;;;;;;;;;105314;1254;61485;-54
2023/01/19 06:42:43;;;;;;;7.10;2.40;;;;;;;;;;104974;1264;59632;-51
2023/01/19 06:45:09;;;;;;;3.60;1.20;;;;;;;;;;105035;1260;60739;-53
2023/01/19 06:47:36;;;;;;;1.30;1.10;;;;;;;;;;105162;1259;62124;-50
2023/01/19 06:50:03;;;;;;;1.70;1.40;;;;;;;;;;105287;1257;59760;-50
2023/01/19 06:52:30;;;;;;;1.50;1.00;;;;;;;;;;104838;1261;62371;-52
2023/01/19 06:54:57;;;;;;;0.80;0.80;;;;;;;;;;104673;1258;59662;-55
2023/01/19 06:57:24;;;;;;;1.30;1.00;;;;;;;;;;105048;1254;59628;-50
2023/01/19 06:59:51;;;;;;;1.00;0.90;;;;;;;;;;104612;1260;62333;-52
2023/01/19 07:02:21;;;;;;;1.00;0.90;;;;;;;;;;104483;1260;59554;-52
2023/01/19 07:04:53;;;;;;;1.90;1.00;;;;;;;;;;104940;1257;61885;-52
2023/01/19 07:07:20;;;;;;;3.20;1.30;;;;;;;;;;105250;1260;59534;-51
2023/01/19 07:09:47;;;;;;;2.30;1.00;;;;;;;;;;105314;1255;59648;-55
2023/01/19 07:12:14;;;;;;;2.20;0.90;;;;;;;;;;105161;1254;61299;-51
2023/01/19 07:14:41;;;;;;;1.40;1.30;;;;;;;;;;104918;1260;59686;-51
2023/01/19 07:17:07;;;;;;;1.20;0.80;;;;;;;;;;105042;1260;60844;-51
2023/01/19 07:19:34;;;;;;;1.10;0.60;;;;;;;;;;105141;1257;59724;-48
2023/01/19 07:22:02;;;;;;;3.30;0.90;;;;;;;;;;105331;1261;59596;-55
2023/01/19 07:24:29;;;;;;;7.70;0.90;;;;;;;;;;105542;1254;62173;-50
2023/01/19 07:26:56;;;;;;;2.80;0.80;;;;;;;;;;105124;1254;59697;-53
2023/01/19 07:29:23;;;;;;;1.00;0.90;;;;;;;;;;105077;1257;60376;-49
2023/01/19 07:31:53;;;;;;;7.40;1.10;;;;;;;;;;105487;1254;59710;-55
2023/01/19 07:34:20;;;;;;;4.00;0.90;;;;;;;;;;105868;1257;59541;-54
2023/01/19 07:36:47;;;;;;;2.30;0.90;;;;;;;;;;104765;1254;62146;-51
2023/01/19 07:39:13;;;;;;;8.10;1.00;;;;;;;;;;104706;1254;59609;-50
2023/01/19 07:41:40;;;;;;;1.60;1.10;;;;;;;;;;104973;1260;61881;-56
2023/01/19 07:44:07;;;;;;;1.20;1.10;;;;;;;;;;105071;1255;59612;-52
2023/01/19 07:46:34;;;;;;;1.60;1.10;;;;;;;;;;104800;1260;59978;-51
2023/01/19 07:49:00;;;;;;;3.50;0.90;;;;;;;;;;105247;1260;62455;-52
2023/01/19 07:51:27;;;;;;;0.80;0.80;;;;;;;;;;104887;1257;59662;-50
2023/01/19 07:53:54;;;;;;;5.30;1.10;;;;;;;;;;105234;1261;60577;-48
2023/01/19 07:56:22;;;;;;;3.60;0.80;;;;;;;;;;105319;1258;60105;-52
2023/01/19 07:58:51;;;;;;;0.90;0.80;;;;;;;;;;104913;1254;59746;-50
2023/01/19 08:01:17;;;;;;;0.90;0.60;;;;;;;;;;104951;1254;62521;-52
2023/01/19 08:03:46;;;;;;;0.80;0.80;;;;;;;;;;105044;1260;59541;-56
2023/01/19 08:06:23;;;;;;;5.20;0.70;;;;;;;;;;105634;1254;60916;-56
2023/01/19 08:08:49;;;;;;;2.40;0.70;;;;;;;;;;104960;1260;60401;-49
2023/01/19 08:11:16;;;;;;;2.40;0.60;;;;;;;;;;105339;1255;60395;-54
2023/01/19 08:16:21;;;;;;;1.10;0.60;;;;;;;;;;101566;1294;600666;-55
2023/01/19 08:18:48;;;;;;;1.30;0.70;;;;;;;;;;104083;1266;59019;-52
2023/01/19 08:21:15;;;;;;;1.70;1.20;;;;;;;;;;104176;1267;59128;-52
2023/01/19 08:23:42;;;;;;;1.80;0.80;;;;;;;;;;104136;1263;60268;-54
2023/01/19 08:26:18;;;;;;;0.90;0.80;;;;;;;;;;104153;1264;59164;-56
2023/01/19 08:28:45;;;;;;;2.40;1.00;;;;;;;;;;104756;1258;62221;-53
2023/01/19 08:31:12;;;;;;;4.80;1.00;;;;;;;;;;106527;1254;134246;-54
2023/01/19 08:33:47;;;;;;;2.00;1.20;;;;;;;;;;104888;1254;59141;-56
2023/01/19 08:36:14;;;;;;;1.50;1.10;;;;;;;;;;104901;1254;61448;-57
2023/01/19 08:38:43;;;;;;;1.10;0.90;;;;;;;;;;104951;1254;60227;-54
2023/01/19 08:41:10;;;;;;;1.00;0.90;;;;;;;;;;105708;1256;60692;-53
2023/01/19 08:43:37;;;;;;;1.00;0.90;;;;;;;;;;105017;1256;61217;-54
2023/01/19 08:46:04;;;;;;;2.00;1.10;;;;;;;;;;104957;1257;60091;-54
2023/01/19 08:48:30;;;;;;;2.20;1.30;;;;;;;;;;104841;1255;62685;-56
2023/01/19 08:50:58;;;;;;;1.60;1.00;;;;;;;;;;104924;1259;59749;-55
2023/01/19 08:53:24;;;;;;;1.80;0.80;;;;;;;;;;104671;1261;60861;-56
2023/01/19 08:55:56;;;;;;;2.40;1.20;;;;;;;;;;104820;1254;59600;-56
2023/01/19 08:58:23;;;;;;;1.60;1.50;;;;;;;;;;105148;1254;59646;-54
2023/01/19 09:00:51;;;;;;;1.40;1.10;;;;;;;;;;104737;1256;62446;-54
2023/01/19 09:03:18;;;;;;;1.00;0.90;;;;;;;;;;104757;1254;60242;-55
2023/01/19 09:06:54;;;;;;;1.00;0.80;;;;;;;;;;101508;1291;600211;-55
2023/01/19 09:09:21;;;;;;;1.10;0.80;;;;;;;;;;104095;1267;59190;-55
2023/01/19 09:11:48;;;;;;;1.50;0.90;;;;;;;;;;104248;1271;59161;-54
2023/01/19 09:14:14;;;;;;;2.10;1.00;;;;;;;;;;104365;1267;59136;-52
2023/01/19 09:16:42;;;;;;;1.60;0.90;;;;;;;;;;104097;1266;60524;-53
2023/01/19 09:19:08;;;;;;;1.60;0.80;;;;;;;;;;104203;1267;61620;-55
2023/01/19 09:21:35;;;;;;;1.10;1.00;;;;;;;;;;104158;1269;174689;-56
2023/01/19 09:24:02;;;;;;;1.10;0.90;;;;;;;;;;104289;1267;59422;-53
2023/01/19 09:26:28;;;;;;;1.10;0.80;;;;;;;;;;104401;1266;60949;-54
2023/01/19 09:28:58;;;;;;;0.60;0.60;;;;;;;;;;104402;1263;59012;-51
2023/01/19 09:31:25;;;;;;;3.90;1.00;;;;;;;;;;104470;1266;62033;-55
2023/01/19 09:33:52;;;;;;;1.10;1.00;;;;;;;;;;104593;1269;60011;-55
2023/01/19 09:36:19;;;;;;;1.20;1.10;;;;;;;;;;104360;1264;59634;-52
2023/01/19 09:38:45;;;;;;;2.10;1.10;;;;;;;;;;104121;1263;62475;-55
2023/01/19 09:41:17;;;;;;;1.40;1.00;;;;;;;;;;104353;1264;59712;-54
2023/01/19 09:43:52;;;;;;;3.50;1.30;;;;;;;;;;104682;1265;62140;-52
2023/01/19 09:46:38;;;;;;;1.50;1.40;;;;;;;;;;104229;1269;59736;-52
2023/01/19 09:49:10;;;;;;;2.80;1.10;;;;;;;;;;104357;1263;59644;-53
2023/01/19 09:51:38;;;;;;;1.80;1.00;;;;;;;;;;105790;1263;62524;-53
2023/01/19 09:54:07;;;;;;;2.00;1.00;;;;;;;;;;104063;1263;59967;-54
2023/01/19 09:56:33;;;;;;;2.30;1.10;;;;;;;;;;104225;1264;61605;-54
2023/01/19 09:59:00;;;;;;;1.80;1.20;;;;;;;;;;104117;1263;59892;-55
2023/01/19 10:01:32;;;;;;;3.00;1.10;;;;;;;;;;104262;1263;59647;-53
2023/01/19 10:04:20;;;;;;;2.00;1.40;;;;;;;;;;104190;1262;64317;-55
2023/01/19 10:06:47;;;;;;;1.90;1.20;;;;;;;;;;104460;1263;59654;-55
2023/01/19 10:11:29;;;;;;;2.80;1.70;;;;;;;;;;102024;1290;601062;-57
2023/01/19 10:14:15;;;;;;;2.20;1.50;;;;;;;;;;104189;1269;59471;-57
2023/01/19 10:16:46;;;;;;;2.20;1.40;;;;;;;;;;104398;1263;58819;-54
2023/01/19 10:19:19;;;;;;;2.60;1.70;;;;;;;;;;105502;1266;60537;-56
2023/01/19 10:21:46;;;;;;;4.70;1.70;;;;;;;;;;104347;1267;58976;-54
2023/01/19 10:24:24;;;;;;;3.60;1.80;;;;;;;;;;104145;1261;189315;-54
2023/01/19 10:26:54;;;;;;;4.30;2.10;;;;;;;;;;104303;1266;58984;-52
2023/01/19 10:29:24;;;;;;;3.20;1.80;;;;;;;;;;104577;1260;59566;-53
2023/01/19 10:31:51;;;;;;;2.40;1.80;;;;;;;;;;104528;1258;61576;-56
2023/01/19 10:34:18;;;;;;;4.50;1.50;;;;;;;;;;104730;1257;59013;-54
2023/01/19 10:36:49;;;;;;;3.10;1.50;;;;;;;;;;108076;1257;61873;-55
2023/01/19 10:39:16;;;;;;;1.60;1.40;;;;;;;;;;105472;1262;59723;-54
2023/01/19 10:41:49;;;;;;;3.30;1.80;;;;;;;;;;104427;1266;59568;-57
2023/01/19 10:44:24;;;;;;;3.90;1.40;;;;;;;;;;105110;1258;62500;-51
2023/01/19 10:46:50;;;;;;;2.00;1.60;;;;;;;;;;104636;1257;60437;-52
2023/01/19 10:49:25;;;;;;;4.40;1.90;;;;;;;;;;104557;1258;61890;-54
2023/01/19 10:51:51;;;;;;;2.00;1.70;;;;;;;;;;104634;1261;60517;-53
2023/01/19 10:54:18;;;;;;;1.80;1.50;;;;;;;;;;104605;1263;59635;-55
2023/01/19 10:56:49;;;;;;;3.60;1.60;;;;;;;;;;104596;1260;60951;-56
2023/01/19 10:59:29;;;;;;;2.40;1.30;;;;;;;;;;104551;1261;59622;-57
2023/01/19 11:02:15;;;;;;;6.70;1.50;;;;;;;;;;105079;1260;62054;-53
2023/01/19 11:04:44;;;;;;;3.70;1.50;;;;;;;;;;104807;1257;59820;-57
2023/01/19 11:07:14;;;;;;;1.50;1.30;;;;;;;;;;104610;1260;60052;-55
2023/01/19 11:09:41;;;;;;;4.30;1.60;;;;;;;;;;105235;1260;61164;-54
2023/01/19 11:12:14;;;;;;;3.90;1.50;;;;;;;;;;104743;1257;59657;-54
2023/01/19 11:14:41;;;;;;;3.40;1.30;;;;;;;;;;106090;1260;60329;-57
2023/01/19 11:17:13;;;;;;;4.80;1.20;;;;;;;;;;104838;1259;59911;-55
2023/01/19 11:19:40;;;;;;;4.70;2.00;;;;;;;;;;104670;1257;59672;-54
2023/01/19 11:22:14;;;;;;;10.20;3.90;;;;;;;;;;104475;1263;62824;-56
2023/01/19 11:24:42;;;;;;;5.00;2.00;;;;;;;;;;104652;1263;59597;-55
2023/01/19 11:27:08;;;;;;;7.30;2.20;;;;;;;;;;104859;1263;60496;-54
2023/01/19 11:29:35;;;;;;;5.90;2.50;;;;;;;;;;104564;1260;59752;-52
2023/01/19 11:32:11;;;;;;;5.20;2.30;;;;;;;;;;104983;1253;59691;-56
2023/01/19 11:34:38;;;;;;;8.70;2.80;;;;;;;;;;108972;1254;61056;-56
2023/01/19 11:37:22;;;;;;;7.30;1.90;;;;;;;;;;109050;1254;58397;-56
2023/01/19 11:39:49;;;;;;;4.70;2.00;;;;;;;;;;109063;1257;61953;-54
2023/01/19 11:42:16;;;;;;;9.00;3.40;;;;;;;;;;106424;1253;59590;-54
2023/01/19 11:44:58;;;;;;;12.20;2.80;;;;;;;;;;104855;1254;59624;-54
2023/01/19 11:47:31;;;;;;;10.10;3.10;;;;;;;;;;105052;1253;61431;-54
2023/01/19 11:50:00;;;;;;;7.40;2.10;;;;;;;;;;104720;1254;59714;-54
2023/01/19 11:52:31;;;;;;;10.30;2.30;;;;;;;;;;105045;1258;62332;-55
2023/01/19 11:55:00;;;;;;;9.90;2.30;;;;;;;;;;104987;1253;59769;-53
2023/01/19 11:57:27;;;;;;;14.20;2.70;;;;;;;;;;105008;1255;59486;-53
2023/01/19 11:59:53;;;;;;;13.20;4.80;;;;;;;;;;104888;1258;62419;-55
2023/01/19 12:02:25;;;;;;;12.70;3.70;;;;;;;;;;105007;1254;60671;-54
2023/01/19 12:07:05;;;;;;;11.40;2.30;;;;;;;;;;101680;1289;600939;-56
2023/01/19 12:09:33;;;;;;;15.40;3.10;;;;;;;;;;104819;1265;59120;-56
2023/01/19 12:12:02;;;;;;;12.80;3.10;;;;;;;;;;104371;1264;58959;-54
2023/01/19 12:14:32;;;;;;;12.30;2.10;;;;;;;;;;104295;1270;60353;-54
2023/01/19 12:16:59;;;;;;;14.20;2.60;;;;;;;;;;104159;1267;59049;-53
2023/01/19 12:19:28;;;;;;;20.10;3.50;;;;;;;;;;104137;1268;61831;-55
2023/01/19 12:21:55;;;;;;;22.70;2.90;;;;;;;;;;104073;1266;59132;-54
2023/01/19 12:24:26;;;;;;;13.10;2.20;;;;;;;;;;104118;1261;60364;-52
2023/01/19 12:26:55;;;;;;;17.70;3.50;;;;;;;;;;104277;1262;60612;-51
2023/01/19 12:29:23;;;;;;;22.10;3.60;;;;;;;;;;104868;1264;60759;-55
2023/01/19 12:32:08;;;;;;;9.00;2.50;;;;;;;;;;105523;1261;62118;-53
2023/01/19 12:34:38;;;;;;;14.10;3.20;;;;;;;;;;104392;1263;60953;-57
2023/01/19 13:28:44;;;;;;;18.50;4.10;;;;;;;7.76;96.07;100059.07;102737;1287;614437;-54
2023/01/19 13:31:11;;;;;;;24.30;5.20;;;;;;;7.91;94.96;100154.69;107923;1270;136259;-53
2023/01/19 13:33:43;;;;;;;18.70;6.60;;;;;;;7.96;94.95;100157.73;107978;1266;58440;-56
2023/01/19 13:36:25;;;;;;;27.60;5.10;;;;;;;8.01;94.86;100170.98;105496;1274;73048;-55
2023/01/19 13:38:52;;;;;;;16.50;4.50;;;;;;;8.04;94.79;100193.60;105228;1272;68232;-54
2023/01/19 13:41:22;;;;;;;13.60;4.30;;;;;;;8.07;94.82;100196.02;103910;1270;71292;-55
2023/01/19 13:43:53;;;;;;;13.60;2.60;;;;;;;8.10;94.80;100207.16;104262;1272;64472;-54
2023/01/19 13:46:20;;;;;;;17.90;4.30;;;;;;;8.12;94.80;100218.71;104368;1273;60990;-54
2023/01/19 13:48:58;;;;;;;22.10;3.20;;;;;;;8.14;94.83;100226.88;104336;1267;72092;-53
2023/01/19 13:51:26;;;;;;;21.30;3.60;;;;;;;8.16;94.85;100237.90;104727;1274;65856;-55
2023/01/19 13:53:57;;;;;;;20.10;4.40;;;;;;;8.18;94.90;100236.58;104290;1270;72121;-56
2023/01/19 13:56:28;;;;;;;22.60;3.30;;;;;;;8.19;94.88;100247.27;104779;1269;64076;-55
2023/01/19 13:59:08;;;;;;;24.20;6.80;;;;;;;8.22;94.92;100252.39;106044;1267;64228;-57
2023/01/19 14:01:43;;;;;;;16.30;4.90;;;;;;;8.23;94.89;100262.89;105083;1272;73350;-56
2023/01/19 14:04:29;;;;;;;22.00;5.80;;;;;;;8.26;94.91;100274.05;104547;1272;67830;-54
2023/01/19 14:07:01;;;;;;;15.70;5.20;;;;;;;8.28;94.88;100282.23;104907;1272;74502;-53
2023/01/19 14:09:28;;;;;;;19.50;5.60;;;;;;;8.28;94.93;100284.90;104616;1272;64151;-54
2023/01/19 14:12:14;;;;;;;25.20;4.10;;;;;;;8.28;94.96;100289.73;104804;1273;62510;-53
2023/01/19 14:14:42;;;;;;;20.30;5.30;;;;;;;8.29;94.94;100299.00;104902;1266;71723;-56
2023/01/19 14:17:22;;;;;;;17.10;5.40;;;;;;;8.29;94.99;100301.68;104474;1266;69280;-52
2023/01/19 14:19:49;;;;;;;28.30;6.70;;;;;;;8.30;94.95;100312.04;104317;1267;73293;-56
2023/01/19 14:22:16;;;;;;;24.40;7.00;;;;;;;8.32;94.97;100316.66;108122;1261;65477;-52
2023/01/19 14:24:43;;;;;;;30.70;6.60;;;;;;;8.32;94.98;100316.30;105033;1266;60726;-54
2023/01/19 14:27:22;;;;;;;22.70;6.10;;;;;;;8.34;94.96;100313.70;104497;1269;73471;-54
2023/01/19 14:29:52;;;;;;;19.20;3.30;;;;;;;8.35;94.93;100328.70;104917;1260;69628;-55
2023/01/19 14:32:21;;;;;;;24.10;3.90;;;;;;;8.36;94.95;100326.71;104972;1267;74727;-55
2023/01/19 14:35:09;;;;;;;24.20;3.60;;;;;;;8.37;94.95;100326.33;104703;1276;63277;-55